sensor_id;sensor_type;location;lat;lon;timestamp;temperature;humidity
16523;DHT22;19889;52.546;13.348;2023-02-11T00:00:40;5.70;99.90
16523;DHT22;19889;52.546;13.348;2023-02-11T00:03:07;5.70;99.90
16523;DHT22;19889;52.546;13.348;2023-02-11T00:05:34;5.80;99.90
16523;DHT22;19889;52.546;13.348;2023-02-11T00:08:01;5.80;99.90
16523;DHT22;19889;52.546;13.348;2023-02-11T00:10:28;5.80;99.90
16523;DHT22;19889;52.546;13.348;2023-02-11T00:12:55;5.80;99.90
16523;DHT22;19889;52.546;13.348;2023-02-11T00:15:22;5.80;99.90
16523;DHT22;19889;52.546;13.348;2023-02-11T00:17:50;5.80;99.90
16523;DHT22;19889;52.546;13.348;2023-02-11T00:20:18;5.70;99.90
16523;DHT22;19889;52.546;13.348;2023-02-11T00:22:45;5.80;99.90
16523;DHT22;19889;52.546;13.348;2023-02-11T00:25:12;5.80;99.90
16523;DHT22;19889;52.546;13.348;2023-02-11T00:27:39;5.80;99.90
16523;DHT22;19889;52.546;13.348;2023-02-11T00:30:07;6.00;99.90
16523;DHT22;19889;52.546;13.348;2023-02-11T00:32:34;5.80;99.90
16523;DHT22;19889;52.546;13.348;2023-02-11T00:35:02;5.80;99.90
16523;DHT22;19889;52.546;13.348;2023-02-11T00:37:31;5.80;99.90
16523;DHT22;19889;52.546;13.348;2023-02-11T00:40:02;5.80;99.90
16523;DHT22;19889;52.546;13.348;2023-02-11T00:42:32;5.70;99.90
16523;DHT22;19889;52.546;13.348;2023-02-11T00:45:00;5.80;99.90
16523;DHT22;19889;52.546;13.348;2023-02-11T00:47:27;5.80;99.90
16523;DHT22;19889;52.546;13.348;2023-02-11T00:49:55;5.80;99.90
16523;DHT22;19889;52.546;13.348;2023-02-11T00:52:23;5.80;99.90
16523;DHT22;19889;52.546;13.348;2023-02-11T00:54:50;5.80;99.90
16523;DHT22;19889;52.546;13.348;2023-02-11T00:57:18;5.80;99.90
16523;DHT22;19889;52.546;13.348;2023-02-11T00:59:45;5.90;99.90
16523;DHT22;19889;52.546;13.348;2023-02-11T01:02:12;5.90;99.90
16523;DHT22;19889;52.546;13.348;2023-02-11T01:04:40;5.90;99.90
16523;DHT22;19889;52.546;13.348;2023-02-11T01:07:07;5.90;99.90
16523;DHT22;19889;52.546;13.348;2023-02-11T01:09:37;6.10;99.90
16523;DHT22;19889;52.546;13.348;2023-02-11T01:12:05;5.90;99.90
16523;DHT22;19889;52.546;13.348;2023-02-11T01:14:32;5.90;99.90
16523;DHT22;19889;52.546;13.348;2023-02-11T01:16:59;5.90;99.90
16523;DHT22;19889;52.546;13.348;2023-02-11T01:19:26;5.90;99.90
16523;DHT22;19889;52.546;13.348;2023-02-11T01:21:53;5.90;99.90
16523;DHT22;19889;52.546;13.348;2023-02-11T01:24:21;6.00;99.90
16523;DHT22;19889;52.546;13.348;2023-02-11T01:26:49;5.90;99.90
16523;DHT22;19889;52.546;13.348;2023-02-11T01:29:16;6.00;99.90
16523;DHT22;19889;52.546;13.348;2023-02-11T01:31:43;6.00;99.90
16523;DHT22;19889;52.546;13.348;2023-02-11T01:34:10;6.00;99.90
16523;DHT22;19889;52.546;13.348;2023-02-11T01:36:37;6.00;99.90
16523;DHT22;19889;52.546;13.348;2023-02-11T01:39:04;6.00;99.90
16523;DHT22;19889;52.546;13.348;2023-02-11T01:41:31;6.00;99.90
16523;DHT22;19889;52.546;13.348;2023-02-11T01:44:34;6.00;99.90
16523;DHT22;19889;52.546;13.348;2023-02-11T01:47:01;6.10;99.90
16523;DHT22;19889;52.546;13.348;2023-02-11T01:49:30;6.00;99.90
16523;DHT22;19889;52.546;13.348;2023-02-11T01:52:00;6.10;99.90
16523;DHT22;19889;52.546;13.348;2023-02-11T01:54:30;6.10;99.90
16523;DHT22;19889;52.546;13.348;2023-02-11T01:57:18;6.10;99.90
16523;DHT22;19889;52.546;13.348;2023-02-11T02:00:07;6.00;99.90
16523;DHT22;19889;52.546;13.348;2023-02-11T02:02:48;6.10;99.90
16523;DHT22;19889;52.546;13.348;2023-02-11T02:05:27;6.30;99.90
16523;DHT22;19889;52.546;13.348;2023-02-11T02:08:03;6.10;99.90
16523;DHT22;19889;52.546;13.348;2023-02-11T02:10:33;6.10;99.90
16523;DHT22;19889;52.546;13.348;2023-02-11T02:13:01;6.10;99.90
16523;DHT22;19889;52.546;13.348;2023-02-11T02:15:31;6.10;99.90
16523;DHT22;19889;52.546;13.348;2023-02-11T02:18:19;7.40;99.90
16523;DHT22;19889;52.546;13.348;2023-02-11T02:21:24;6.10;99.90
16523;DHT22;19889;52.546;13.348;2023-02-11T02:24:20;6.20;99.90
16523;DHT22;19889;52.546;13.348;2023-02-11T02:27:17;6.20;99.90
16523;DHT22;19889;52.546;13.348;2023-02-11T02:33:06;6.20;99.90
16523;DHT22;19889;52.546;13.348;2023-02-11T02:35:44;6.20;99.90
16523;DHT22;19889;52.546;13.348;2023-02-11T02:38:17;6.20;99.90
16523;DHT22;19889;52.546;13.348;2023-02-11T02:40:49;6.20;99.90
16523;DHT22;19889;52.546;13.348;2023-02-11T02:43:18;6.20;99.90
16523;DHT22;19889;52.546;13.348;2023-02-11T02:45:46;6.20;99.90
16523;DHT22;19889;52.546;13.348;2023-02-11T02:48:26;6.20;99.90
16523;DHT22;19889;52.546;13.348;2023-02-11T02:51:01;6.20;99.90
16523;DHT22;19889;52.546;13.348;2023-02-11T02:53:40;6.20;99.90
16523;DHT22;19889;52.546;13.348;2023-02-11T02:56:13;6.20;99.90
16523;DHT22;19889;52.546;13.348;2023-02-11T02:58:59;6.20;99.90
16523;DHT22;19889;52.546;13.348;2023-02-11T03:01:38;6.20;99.90
16523;DHT22;19889;52.546;13.348;2023-02-11T03:04:15;6.20;99.90
16523;DHT22;19889;52.546;13.348;2023-02-11T03:06:48;6.20;99.90
16523;DHT22;19889;52.546;13.348;2023-02-11T03:09:23;6.20;99.90
16523;DHT22;19889;52.546;13.348;2023-02-11T03:11:51;6.20;99.90
16523;DHT22;19889;52.546;13.348;2023-02-11T03:14:19;6.20;99.90
16523;DHT22;19889;52.546;13.348;2023-02-11T03:16:49;6.30;99.90
16523;DHT22;19889;52.546;13.348;2023-02-11T03:19:20;6.30;99.90
16523;DHT22;19889;52.546;13.348;2023-02-11T03:21:48;6.30;99.90
16523;DHT22;19889;52.546;13.348;2023-02-11T03:24:20;6.30;99.90
16523;DHT22;19889;52.546;13.348;2023-02-11T03:26:50;6.20;99.90
16523;DHT22;19889;52.546;13.348;2023-02-11T03:29:30;6.30;99.90
16523;DHT22;19889;52.546;13.348;2023-02-11T03:32:01;6.30;99.90
16523;DHT22;19889;52.546;13.348;2023-02-11T03:34:37;6.30;99.90
16523;DHT22;19889;52.546;13.348;2023-02-11T03:37:10;6.30;99.90
16523;DHT22;19889;52.546;13.348;2023-02-11T03:39:41;6.30;99.90
16523;DHT22;19889;52.546;13.348;2023-02-11T03:42:10;6.30;99.90
16523;DHT22;19889;52.546;13.348;2023-02-11T03:44:43;6.30;99.90
16523;DHT22;19889;52.546;13.348;2023-02-11T03:47:13;6.30;99.90
16523;DHT22;19889;52.546;13.348;2023-02-11T03:49:44;6.30;99.90
16523;DHT22;19889;52.546;13.348;2023-02-11T03:52:14;6.40;99.90
16523;DHT22;19889;52.546;13.348;2023-02-11T03:54:45;6.30;99.90
16523;DHT22;19889;52.546;13.348;2023-02-11T03:57:14;6.40;99.90
16523;DHT22;19889;52.546;13.348;2023-02-11T03:59:52;6.30;99.90
16523;DHT22;19889;52.546;13.348;2023-02-11T04:02:21;6.40;99.90
16523;DHT22;19889;52.546;13.348;2023-02-11T04:04:50;6.40;99.90
16523;DHT22;19889;52.546;13.348;2023-02-11T04:07:17;6.40;99.90
16523;DHT22;19889;52.546;13.348;2023-02-11T04:09:44;6.40;99.90
16523;DHT22;19889;52.546;13.348;2023-02-11T04:12:11;6.40;99.90
16523;DHT22;19889;52.546;13.348;2023-02-11T04:14:38;6.40;99.90
16523;DHT22;19889;52.546;13.348;2023-02-11T04:17:05;6.40;99.90
16523;DHT22;19889;52.546;13.348;2023-02-11T04:19:32;6.40;99.90
16523;DHT22;19889;52.546;13.348;2023-02-11T04:22:01;6.40;99.90
16523;DHT22;19889;52.546;13.348;2023-02-11T04:24:28;6.40;99.90
16523;DHT22;19889;52.546;13.348;2023-02-11T04:26:55;6.40;99.90
16523;DHT22;19889;52.546;13.348;2023-02-11T04:29:22;6.40;99.90
16523;DHT22;19889;52.546;13.348;2023-02-11T04:31:49;6.40;99.90
16523;DHT22;19889;52.546;13.348;2023-02-11T04:34:16;6.50;99.90
16523;DHT22;19889;52.546;13.348;2023-02-11T04:36:43;6.50;99.90
16523;DHT22;19889;52.546;13.348;2023-02-11T04:39:11;6.50;99.90
16523;DHT22;19889;52.546;13.348;2023-02-11T04:41:38;6.50;99.90
16523;DHT22;19889;52.546;13.348;2023-02-11T04:44:05;6.50;99.90
16523;DHT22;19889;52.546;13.348;2023-02-11T04:46:32;6.50;99.90
16523;DHT22;19889;52.546;13.348;2023-02-11T04:48:59;6.50;99.90
16523;DHT22;19889;52.546;13.348;2023-02-11T04:51:26;6.50;99.90
16523;DHT22;19889;52.546;13.348;2023-02-11T04:53:53;6.50;99.90
16523;DHT22;19889;52.546;13.348;2023-02-11T04:56:21;6.50;99.90
16523;DHT22;19889;52.546;13.348;2023-02-11T04:58:48;6.50;99.90
16523;DHT22;19889;52.546;13.348;2023-02-11T05:01:15;6.50;99.90
16523;DHT22;19889;52.546;13.348;2023-02-11T05:03:42;6.50;99.90
16523;DHT22;19889;52.546;13.348;2023-02-11T05:06:10;6.50;99.90
16523;DHT22;19889;52.546;13.348;2023-02-11T05:08:38;6.50;99.90
16523;DHT22;19889;52.546;13.348;2023-02-11T05:11:05;6.50;99.90
16523;DHT22;19889;52.546;13.348;2023-02-11T05:13:34;6.60;99.90
16523;DHT22;19889;52.546;13.348;2023-02-11T05:16:01;6.50;99.90
16523;DHT22;19889;52.546;13.348;2023-02-11T05:18:28;6.50;99.90
16523;DHT22;19889;52.546;13.348;2023-02-11T05:20:55;6.50;99.90
16523;DHT22;19889;52.546;13.348;2023-02-11T05:23:22;6.50;99.90
16523;DHT22;19889;52.546;13.348;2023-02-11T05:25:49;6.50;99.90
16523;DHT22;19889;52.546;13.348;2023-02-11T05:28:16;6.50;99.90
16523;DHT22;19889;52.546;13.348;2023-02-11T05:30:44;6.60;99.90
16523;DHT22;19889;52.546;13.348;2023-02-11T05:33:11;6.60;99.90
16523;DHT22;19889;52.546;13.348;2023-02-11T05:35:38;6.60;99.90
16523;DHT22;19889;52.546;13.348;2023-02-11T05:38:05;6.60;99.90
16523;DHT22;19889;52.546;13.348;2023-02-11T05:40:32;6.60;99.90
16523;DHT22;19889;52.546;13.348;2023-02-11T05:42:59;6.60;99.90
16523;DHT22;19889;52.546;13.348;2023-02-11T05:45:26;6.60;99.90
16523;DHT22;19889;52.546;13.348;2023-02-11T05:47:54;6.60;99.90
16523;DHT22;19889;52.546;13.348;2023-02-11T05:50:21;6.60;99.90
16523;DHT22;19889;52.546;13.348;2023-02-11T05:52:51;6.60;99.90
16523;DHT22;19889;52.546;13.348;2023-02-11T05:55:18;6.60;99.90
16523;DHT22;19889;52.546;13.348;2023-02-11T05:57:45;6.60;99.90
16523;DHT22;19889;52.546;13.348;2023-02-11T06:00:13;6.60;99.90
16523;DHT22;19889;52.546;13.348;2023-02-11T06:02:40;6.60;99.90
16523;DHT22;19889;52.546;13.348;2023-02-11T06:05:09;6.60;99.90
16523;DHT22;19889;52.546;13.348;2023-02-11T06:07:36;6.60;99.90
16523;DHT22;19889;52.546;13.348;2023-02-11T06:10:03;6.60;99.90
16523;DHT22;19889;52.546;13.348;2023-02-11T06:12:30;6.60;99.90
16523;DHT22;19889;52.546;13.348;2023-02-11T06:14:57;6.70;99.90
16523;DHT22;19889;52.546;13.348;2023-02-11T06:17:24;6.70;99.90
16523;DHT22;19889;52.546;13.348;2023-02-11T06:19:51;6.70;99.90
16523;DHT22;19889;52.546;13.348;2023-02-11T06:22:19;6.70;99.90
16523;DHT22;19889;52.546;13.348;2023-02-11T06:24:46;6.70;99.90
16523;DHT22;19889;52.546;13.348;2023-02-11T06:27:13;5.00;99.90
16523;DHT22;19889;52.546;13.348;2023-02-11T06:29:40;6.70;99.90
16523;DHT22;19889;52.546;13.348;2023-02-11T06:32:07;6.70;99.90
16523;DHT22;19889;52.546;13.348;2023-02-11T06:34:34;6.70;99.90
16523;DHT22;19889;52.546;13.348;2023-02-11T06:37:01;6.70;99.90
16523;DHT22;19889;52.546;13.348;2023-02-11T06:39:29;7.70;99.90
16523;DHT22;19889;52.546;13.348;2023-02-11T06:41:56;6.70;99.90
16523;DHT22;19889;52.546;13.348;2023-02-11T06:44:23;6.70;99.90
16523;DHT22;19889;52.546;13.348;2023-02-11T06:46:50;6.80;99.90
16523;DHT22;19889;52.546;13.348;2023-02-11T06:49:17;6.70;99.90
16523;DHT22;19889;52.546;13.348;2023-02-11T06:51:44;6.80;99.90
16523;DHT22;19889;52.546;13.348;2023-02-11T06:54:11;6.80;99.90
16523;DHT22;19889;52.546;13.348;2023-02-11T06:56:40;6.50;99.90
16523;DHT22;19889;52.546;13.348;2023-02-11T06:59:14;6.80;99.90
16523;DHT22;19889;52.546;13.348;2023-02-11T07:01:41;6.80;99.90
16523;DHT22;19889;52.546;13.348;2023-02-11T07:04:08;6.80;99.90
16523;DHT22;19889;52.546;13.348;2023-02-11T07:06:36;6.90;99.90
16523;DHT22;19889;52.546;13.348;2023-02-11T07:09:03;6.80;99.90
16523;DHT22;19889;52.546;13.348;2023-02-11T07:11:31;6.80;99.90
16523;DHT22;19889;52.546;13.348;2023-02-11T07:14:03;6.90;99.90
16523;DHT22;19889;52.546;13.348;2023-02-11T07:16:30;6.90;99.90
16523;DHT22;19889;52.546;13.348;2023-02-11T07:18:57;6.90;99.90
16523;DHT22;19889;52.546;13.348;2023-02-11T07:21:24;6.80;99.90
16523;DHT22;19889;52.546;13.348;2023-02-11T07:23:52;6.90;99.90
16523;DHT22;19889;52.546;13.348;2023-02-11T07:26:20;6.90;99.90
16523;DHT22;19889;52.546;13.348;2023-02-11T07:28:48;6.90;99.90
16523;DHT22;19889;52.546;13.348;2023-02-11T07:31:18;6.90;99.90
16523;DHT22;19889;52.546;13.348;2023-02-11T07:33:54;7.00;99.90
16523;DHT22;19889;52.546;13.348;2023-02-11T07:36:25;7.00;99.90
16523;DHT22;19889;52.546;13.348;2023-02-11T07:38:52;7.00;99.90
16523;DHT22;19889;52.546;13.348;2023-02-11T07:41:22;7.00;99.90
16523;DHT22;19889;52.546;13.348;2023-02-11T07:43:50;7.00;99.90
16523;DHT22;19889;52.546;13.348;2023-02-11T07:46:20;7.00;99.90
16523;DHT22;19889;52.546;13.348;2023-02-11T07:48:48;7.10;99.90
16523;DHT22;19889;52.546;13.348;2023-02-11T07:51:16;7.10;99.90
16523;DHT22;19889;52.546;13.348;2023-02-11T07:53:44;7.10;99.90
16523;DHT22;19889;52.546;13.348;2023-02-11T07:56:13;7.10;99.90
16523;DHT22;19889;52.546;13.348;2023-02-11T07:58:40;7.10;99.90
16523;DHT22;19889;52.546;13.348;2023-02-11T08:01:09;7.10;99.90
16523;DHT22;19889;52.546;13.348;2023-02-11T08:03:39;7.20;99.90
16523;DHT22;19889;52.546;13.348;2023-02-11T08:06:09;7.20;99.90
16523;DHT22;19889;52.546;13.348;2023-02-11T08:08:36;7.20;99.90
16523;DHT22;19889;52.546;13.348;2023-02-11T08:11:05;7.30;99.90
16523;DHT22;19889;52.546;13.348;2023-02-11T08:13:33;7.20;99.90
16523;DHT22;19889;52.546;13.348;2023-02-11T08:16:00;7.20;99.90
16523;DHT22;19889;52.546;13.348;2023-02-11T08:18:27;7.20;99.90
16523;DHT22;19889;52.546;13.348;2023-02-11T08:20:56;7.10;99.90
16523;DHT22;19889;52.546;13.348;2023-02-11T08:23:23;7.30;99.90
16523;DHT22;19889;52.546;13.348;2023-02-11T08:25:50;7.20;99.90
16523;DHT22;19889;52.546;13.348;2023-02-11T08:28:17;7.30;99.90
16523;DHT22;19889;52.546;13.348;2023-02-11T08:30:44;7.30;99.90
16523;DHT22;19889;52.546;13.348;2023-02-11T08:33:11;7.30;99.90
16523;DHT22;19889;52.546;13.348;2023-02-11T08:35:38;7.30;99.90
16523;DHT22;19889;52.546;13.348;2023-02-11T08:38:07;7.30;99.90
16523;DHT22;19889;52.546;13.348;2023-02-11T08:40:34;7.30;99.90
16523;DHT22;19889;52.546;13.348;2023-02-11T08:43:01;7.30;99.90
16523;DHT22;19889;52.546;13.348;2023-02-11T08:45:28;8.70;99.90
16523;DHT22;19889;52.546;13.348;2023-02-11T08:47:55;7.30;99.90
16523;DHT22;19889;52.546;13.348;2023-02-11T08:50:22;7.30;99.90
16523;DHT22;19889;52.546;13.348;2023-02-11T08:52:49;7.30;99.90
16523;DHT22;19889;52.546;13.348;2023-02-11T08:55:18;7.30;99.90
16523;DHT22;19889;52.546;13.348;2023-02-11T08:57:45;7.40;99.90
16523;DHT22;19889;52.546;13.348;2023-02-11T09:00:13;7.30;99.90
16523;DHT22;19889;52.546;13.348;2023-02-11T09:02:41;7.40;99.90
16523;DHT22;19889;52.546;13.348;2023-02-11T09:05:08;7.40;99.90
16523;DHT22;19889;52.546;13.348;2023-02-11T09:07:35;7.40;99.90
16523;DHT22;19889;52.546;13.348;2023-02-11T09:10:02;7.40;99.90
16523;DHT22;19889;52.546;13.348;2023-02-11T09:12:32;7.40;99.90
16523;DHT22;19889;52.546;13.348;2023-02-11T09:14:59;8.70;99.90
16523;DHT22;19889;52.546;13.348;2023-02-11T09:17:26;7.40;99.90
16523;DHT22;19889;52.546;13.348;2023-02-11T09:19:53;7.40;99.90
16523;DHT22;19889;52.546;13.348;2023-02-11T09:22:20;7.50;99.90
16523;DHT22;19889;52.546;13.348;2023-02-11T09:24:46;7.40;99.90
16523;DHT22;19889;52.546;13.348;2023-02-11T09:27:13;7.50;99.90
16523;DHT22;19889;52.546;13.348;2023-02-11T09:29:42;7.50;99.90
16523;DHT22;19889;52.546;13.348;2023-02-11T09:32:09;7.50;99.90
16523;DHT22;19889;52.546;13.348;2023-02-11T09:34:36;7.50;99.90
16523;DHT22;19889;52.546;13.348;2023-02-11T09:37:03;7.50;99.90
16523;DHT22;19889;52.546;13.348;2023-02-11T09:39:30;7.50;99.90
16523;DHT22;19889;52.546;13.348;2023-02-11T09:42:31;7.50;99.90
16523;DHT22;19889;52.546;13.348;2023-02-11T09:45:07;7.50;99.90
16523;DHT22;19889;52.546;13.348;2023-02-11T09:47:42;7.60;99.90
16523;DHT22;19889;52.546;13.348;2023-02-11T09:50:12;7.50;99.90
16523;DHT22;19889;52.546;13.348;2023-02-11T09:52:44;7.50;99.90
16523;DHT22;19889;52.546;13.348;2023-02-11T09:55:18;7.60;99.90
16523;DHT22;19889;52.546;13.348;2023-02-11T09:57:46;7.60;99.90
16523;DHT22;19889;52.546;13.348;2023-02-11T10:00:22;7.60;99.90
16523;DHT22;19889;52.546;13.348;2023-02-11T10:03:07;7.60;99.90
16523;DHT22;19889;52.546;13.348;2023-02-11T10:05:46;7.60;99.90
16523;DHT22;19889;52.546;13.348;2023-02-11T10:08:21;7.60;99.90
16523;DHT22;19889;52.546;13.348;2023-02-11T10:11:00;7.60;99.90
16523;DHT22;19889;52.546;13.348;2023-02-11T10:13:46;7.60;99.90
16523;DHT22;19889;52.546;13.348;2023-02-11T10:16:35;7.60;99.90
16523;DHT22;19889;52.546;13.348;2023-02-11T10:19:16;7.70;99.90
16523;DHT22;19889;52.546;13.348;2023-02-11T10:21:53;7.70;99.90
16523;DHT22;19889;52.546;13.348;2023-02-11T10:24:20;7.70;99.90
16523;DHT22;19889;52.546;13.348;2023-02-11T10:26:48;7.60;99.90
16523;DHT22;19889;52.546;13.348;2023-02-11T10:29:27;7.70;99.90
16523;DHT22;19889;52.546;13.348;2023-02-11T10:31:59;7.60;99.90
16523;DHT22;19889;52.546;13.348;2023-02-11T10:34:29;7.70;99.90
16523;DHT22;19889;52.546;13.348;2023-02-11T10:36:56;7.70;99.90
16523;DHT22;19889;52.546;13.348;2023-02-11T10:39:25;7.70;99.90
16523;DHT22;19889;52.546;13.348;2023-02-11T10:41:56;7.70;99.90
16523;DHT22;19889;52.546;13.348;2023-02-11T10:44:29;7.70;99.90
16523;DHT22;19889;52.546;13.348;2023-02-11T10:47:02;7.70;99.90
16523;DHT22;19889;52.546;13.348;2023-02-11T10:49:35;7.40;99.90
16523;DHT22;19889;52.546;13.348;2023-02-11T10:52:14;7.70;99.90
16523;DHT22;19889;52.546;13.348;2023-02-11T10:54:41;8.00;99.90
16523;DHT22;19889;52.546;13.348;2023-02-11T10:57:21;7.80;99.90
16523;DHT22;19889;52.546;13.348;2023-02-11T10:59:48;7.80;99.90
16523;DHT22;19889;52.546;13.348;2023-02-11T11:02:24;7.90;99.90
16523;DHT22;19889;52.546;13.348;2023-02-11T11:04:58;7.90;99.90
16523;DHT22;19889;52.546;13.348;2023-02-11T11:07:27;8.30;99.90
16523;DHT22;19889;52.546;13.348;2023-02-11T11:09:56;7.90;99.90
16523;DHT22;19889;52.546;13.348;2023-02-11T11:12:36;8.40;99.90
16523;DHT22;19889;52.546;13.348;2023-02-11T11:15:18;7.90;99.90
16523;DHT22;19889;52.546;13.348;2023-02-11T11:17:48;7.90;99.90
16523;DHT22;19889;52.546;13.348;2023-02-11T11:20:20;7.90;99.90
16523;DHT22;19889;52.546;13.348;2023-02-11T11:22:48;7.90;99.90
16523;DHT22;19889;52.546;13.348;2023-02-11T11:25:25;8.00;99.90
16523;DHT22;19889;52.546;13.348;2023-02-11T11:27:54;7.90;99.90
16523;DHT22;19889;52.546;13.348;2023-02-11T11:30:25;8.00;99.90
16523;DHT22;19889;52.546;13.348;2023-02-11T11:32:55;7.90;99.90
16523;DHT22;19889;52.546;13.348;2023-02-11T11:35:27;8.00;99.90
16523;DHT22;19889;52.546;13.348;2023-02-11T11:37:59;8.00;99.90
16523;DHT22;19889;52.546;13.348;2023-02-11T11:40:29;7.90;99.90
16523;DHT22;19889;52.546;13.348;2023-02-11T11:43:06;7.80;99.90
16523;DHT22;19889;52.546;13.348;2023-02-11T11:45:52;7.90;99.90
16523;DHT22;19889;52.546;13.348;2023-02-11T11:48:24;7.90;99.90
16523;DHT22;19889;52.546;13.348;2023-02-11T11:50:54;7.90;99.90
16523;DHT22;19889;52.546;13.348;2023-02-11T11:53:30;7.90;99.90
16523;DHT22;19889;52.546;13.348;2023-02-11T11:56:02;7.90;99.90
16523;DHT22;19889;52.546;13.348;2023-02-11T11:58:30;8.00;99.90
16523;DHT22;19889;52.546;13.348;2023-02-11T12:01:05;8.00;99.90
16523;DHT22;19889;52.546;13.348;2023-02-11T12:04:02;8.00;99.90
16523;DHT22;19889;52.546;13.348;2023-02-11T12:06:39;8.00;99.90
16523;DHT22;19889;52.546;13.348;2023-02-11T12:09:15;7.80;99.90
16523;DHT22;19889;52.546;13.348;2023-02-11T12:12:01;8.00;99.90
16523;DHT22;19889;52.546;13.348;2023-02-11T12:14:38;8.00;99.90
16523;DHT22;19889;52.546;13.348;2023-02-11T12:17:17;8.00;99.90
16523;DHT22;19889;52.546;13.348;2023-02-11T12:20:16;8.00;99.90
16523;DHT22;19889;52.546;13.348;2023-02-11T12:22:54;8.60;99.90
16523;DHT22;19889;52.546;13.348;2023-02-11T12:25:26;8.10;99.90
16523;DHT22;19889;52.546;13.348;2023-02-11T12:28:04;8.10;99.90
16523;DHT22;19889;52.546;13.348;2023-02-11T12:30:55;8.10;99.90
16523;DHT22;19889;52.546;13.348;2023-02-11T12:33:36;8.10;99.90
16523;DHT22;19889;52.546;13.348;2023-02-11T12:36:16;8.30;99.90
16523;DHT22;19889;52.546;13.348;2023-02-11T12:39:02;8.20;99.90
16523;DHT22;19889;52.546;13.348;2023-02-11T12:41:44;8.20;99.90
16523;DHT22;19889;52.546;13.348;2023-02-11T12:44:39;8.20;99.90
16523;DHT22;19889;52.546;13.348;2023-02-11T12:47:15;8.20;99.90
16523;DHT22;19889;52.546;13.348;2023-02-11T12:49:59;8.20;99.90
16523;DHT22;19889;52.546;13.348;2023-02-11T12:52:42;8.20;99.90
16523;DHT22;19889;52.546;13.348;2023-02-11T12:55:18;8.20;99.90
16523;DHT22;19889;52.546;13.348;2023-02-11T12:57:49;8.20;99.90
16523;DHT22;19889;52.546;13.348;2023-02-11T13:00:19;8.20;99.90
16523;DHT22;19889;52.546;13.348;2023-02-11T13:02:53;8.20;99.90
16523;DHT22;19889;52.546;13.348;2023-02-11T13:05:25;8.30;99.90
16523;DHT22;19889;52.546;13.348;2023-02-11T13:08:00;8.30;99.90
16523;DHT22;19889;52.546;13.348;2023-02-11T13:10:32;8.30;99.90
16523;DHT22;19889;52.546;13.348;2023-02-11T13:13:01;8.20;99.90
16523;DHT22;19889;52.546;13.348;2023-02-11T13:15:48;8.50;99.90
16523;DHT22;19889;52.546;13.348;2023-02-11T13:18:24;8.30;99.90
16523;DHT22;19889;52.546;13.348;2023-02-11T13:20:58;8.30;99.90
16523;DHT22;19889;52.546;13.348;2023-02-11T13:23:35;8.30;99.90
16523;DHT22;19889;52.546;13.348;2023-02-11T13:26:09;8.30;99.90
16523;DHT22;19889;52.546;13.348;2023-02-11T13:28:43;8.30;99.90
16523;DHT22;19889;52.546;13.348;2023-02-11T13:31:11;7.40;99.90
16523;DHT22;19889;52.546;13.348;2023-02-11T13:33:41;8.30;99.90
16523;DHT22;19889;52.546;13.348;2023-02-11T13:36:22;8.40;99.90
16523;DHT22;19889;52.546;13.348;2023-02-11T13:38:54;8.40;99.90
16523;DHT22;19889;52.546;13.348;2023-02-11T13:41:25;8.40;99.90
16523;DHT22;19889;52.546;13.348;2023-02-11T13:43:58;8.40;99.90
16523;DHT22;19889;52.546;13.348;2023-02-11T13:46:26;8.40;99.90
16523;DHT22;19889;52.546;13.348;2023-02-11T13:48:54;8.40;99.90
16523;DHT22;19889;52.546;13.348;2023-02-11T13:51:34;8.40;99.90
16523;DHT22;19889;52.546;13.348;2023-02-11T13:54:04;8.40;99.90
16523;DHT22;19889;52.546;13.348;2023-02-11T13:56:34;8.40;99.90
16523;DHT22;19889;52.546;13.348;2023-02-11T13:59:03;8.40;99.90
16523;DHT22;19889;52.546;13.348;2023-02-11T14:02:00;8.40;99.90
16523;DHT22;19889;52.546;13.348;2023-02-11T14:05:15;8.40;99.90
16523;DHT22;19889;52.546;13.348;2023-02-11T14:08:17;8.40;99.90
16523;DHT22;19889;52.546;13.348;2023-02-11T14:11:05;8.50;99.90
16523;DHT22;19889;52.546;13.348;2023-02-11T14:13:36;8.50;99.90
16523;DHT22;19889;52.546;13.348;2023-02-11T14:16:23;8.40;99.90
16523;DHT22;19889;52.546;13.348;2023-02-11T14:19:00;8.50;99.90
16523;DHT22;19889;52.546;13.348;2023-02-11T14:21:36;8.40;99.90
16523;DHT22;19889;52.546;13.348;2023-02-11T14:27:13;8.50;99.90
16523;DHT22;19889;52.546;13.348;2023-02-11T14:29:50;8.50;99.90
16523;DHT22;19889;52.546;13.348;2023-02-11T14:32:33;8.50;99.90
16523;DHT22;19889;52.546;13.348;2023-02-11T14:35:09;8.50;99.90
16523;DHT22;19889;52.546;13.348;2023-02-11T14:37:42;8.50;99.90
16523;DHT22;19889;52.546;13.348;2023-02-11T14:40:23;8.50;99.90
16523;DHT22;19889;52.546;13.348;2023-02-11T14:42:54;8.50;99.90
16523;DHT22;19889;52.546;13.348;2023-02-11T14:45:26;8.50;99.90
16523;DHT22;19889;52.546;13.348;2023-02-11T14:47:58;8.50;99.90
16523;DHT22;19889;52.546;13.348;2023-02-11T14:50:32;8.50;99.90
16523;DHT22;19889;52.546;13.348;2023-02-11T14:53:00;8.50;99.90
16523;DHT22;19889;52.546;13.348;2023-02-11T14:55:30;8.50;99.90
16523;DHT22;19889;52.546;13.348;2023-02-11T14:58:07;8.60;99.90
16523;DHT22;19889;52.546;13.348;2023-02-11T15:00:34;8.50;99.90
16523;DHT22;19889;52.546;13.348;2023-02-11T15:03:01;8.60;99.90
16523;DHT22;19889;52.546;13.348;2023-02-11T15:05:28;8.60;99.90
16523;DHT22;19889;52.546;13.348;2023-02-11T15:07:58;8.00;99.90
16523;DHT22;19889;52.546;13.348;2023-02-11T15:10:31;8.60;99.90
16523;DHT22;19889;52.546;13.348;2023-02-11T15:12:59;8.60;99.90
16523;DHT22;19889;52.546;13.348;2023-02-11T15:15:30;8.60;99.90
16523;DHT22;19889;52.546;13.348;2023-02-11T15:18:01;8.60;99.90
16523;DHT22;19889;52.546;13.348;2023-02-11T15:20:30;8.60;99.90
16523;DHT22;19889;52.546;13.348;2023-02-11T15:23:00;8.60;99.90
16523;DHT22;19889;52.546;13.348;2023-02-11T15:25:27;8.50;99.90
16523;DHT22;19889;52.546;13.348;2023-02-11T15:27:56;8.50;99.90
16523;DHT22;19889;52.546;13.348;2023-02-11T15:30:30;8.60;99.90
16523;DHT22;19889;52.546;13.348;2023-02-11T15:33:00;8.50;99.90
16523;DHT22;19889;52.546;13.348;2023-02-11T15:35:29;8.60;99.90
16523;DHT22;19889;52.546;13.348;2023-02-11T15:37:58;8.60;99.90
16523;DHT22;19889;52.546;13.348;2023-02-11T15:40:27;8.60;99.90
16523;DHT22;19889;52.546;13.348;2023-02-11T15:42:56;8.60;99.90
16523;DHT22;19889;52.546;13.348;2023-02-11T15:45:26;8.60;99.90
16523;DHT22;19889;52.546;13.348;2023-02-11T15:47:59;8.60;99.90
16523;DHT22;19889;52.546;13.348;2023-02-11T15:50:30;8.60;99.90
16523;DHT22;19889;52.546;13.348;2023-02-11T15:52:59;8.60;99.90
16523;DHT22;19889;52.546;13.348;2023-02-11T15:55:27;8.60;99.90
16523;DHT22;19889;52.546;13.348;2023-02-11T15:57:56;8.60;99.90
16523;DHT22;19889;52.546;13.348;2023-02-11T16:00:24;8.60;99.90
16523;DHT22;19889;52.546;13.348;2023-02-11T16:02:54;8.60;99.90